createdAt,value
2023-09-04T00:00:59.793Z,7.30
2023-09-04T00:03:39.276Z,7.00
2023-09-04T00:06:08.075Z,7.50
2023-09-04T00:08:36.815Z,7.80
2023-09-04T00:11:05.556Z,7.70
2023-09-04T00:13:34.305Z,7.70
2023-09-04T00:16:03.933Z,7.50
2023-09-04T00:18:32.691Z,7.50
2023-09-04T00:21:01.371Z,7.40
2023-09-04T00:23:30.120Z,8.00
2023-09-04T00:25:58.960Z,8.50
2023-09-04T00:28:27.654Z,7.60
2023-09-04T00:30:58.771Z,8.60
2023-09-04T00:33:27.516Z,8.60
2023-09-04T00:35:56.246Z,8.00
2023-09-04T00:38:25.090Z,8.20
2023-09-04T00:40:54.989Z,7.70
2023-09-04T00:43:23.704Z,8.70
2023-09-04T00:45:52.549Z,8.20
2023-09-04T00:48:21.587Z,8.10
2023-09-04T00:50:51.046Z,8.50
2023-09-04T00:53:20.231Z,8.70
2023-09-04T00:55:51.252Z,7.60
2023-09-04T00:58:20.137Z,7.50
2023-09-04T01:00:48.993Z,8.30
2023-09-04T01:03:19.353Z,9.00
2023-09-04T01:05:48.356Z,8.70
2023-09-04T01:08:18.011Z,8.80
2023-09-04T01:11:18.225Z,9.70
2023-09-04T01:13:53.080Z,8.40
2023-09-04T01:16:23.742Z,9.70
2023-09-04T01:18:53.254Z,9.40
2023-09-04T01:21:22.254Z,8.80
2023-09-04T01:23:51.090Z,9.00
2023-09-04T01:26:28.283Z,9.30
2023-09-04T01:29:11.718Z,9.70
2023-09-04T01:31:56.098Z,9.60
2023-09-04T01:34:37.790Z,10.20
2023-09-04T01:37:07.816Z,10.20
2023-09-04T01:39:38.886Z,9.60
2023-09-04T01:42:08.016Z,9.50
2023-09-04T01:44:36.796Z,9.70
2023-09-04T01:47:05.605Z,10.20
2023-09-04T01:49:34.331Z,10.70
2023-09-04T01:52:03.810Z,9.00
2023-09-04T01:54:32.508Z,9.90
2023-09-04T01:57:01.270Z,10.60
2023-09-04T01:59:30.706Z,10.70
2023-09-04T02:01:59.598Z,9.70
2023-09-04T02:04:32.770Z,9.20
2023-09-04T02:07:01.954Z,8.40
2023-09-04T02:09:30.694Z,9.30
2023-09-04T02:11:59.462Z,9.70
2023-09-04T02:14:29.544Z,10.20
2023-09-04T02:16:58.255Z,10.00
2023-09-04T02:19:27.104Z,10.10
2023-09-04T02:21:55.871Z,10.20
2023-09-04T02:24:24.606Z,9.50
2023-09-04T02:26:53.344Z,9.40
2023-09-04T02:29:22.010Z,9.10
2023-09-04T02:31:50.764Z,9.80
2023-09-04T02:34:21.198Z,9.40
2023-09-04T02:36:49.932Z,10.20
2023-09-04T02:39:18.693Z,9.80
2023-09-04T02:41:47.470Z,10.10
2023-09-04T02:44:16.204Z,9.10
2023-09-04T02:46:44.980Z,9.60
2023-09-04T02:49:13.762Z,8.90
2023-09-04T02:51:43.832Z,9.20
2023-09-04T02:54:12.539Z,9.50
2023-09-04T02:56:41.961Z,8.80
2023-09-04T02:59:11.032Z,8.60
2023-09-04T03:01:39.692Z,9.10
2023-09-04T03:04:09.454Z,9.70
2023-09-04T03:06:39.749Z,10.00
2023-09-04T03:09:09.624Z,9.00
2023-09-04T03:11:38.378Z,9.30
2023-09-04T03:14:07.317Z,9.50
2023-09-04T03:16:37.082Z,9.60
2023-09-04T03:19:05.962Z,9.10
2023-09-04T03:21:35.039Z,9.20
2023-09-04T03:24:04.040Z,9.70
2023-09-04T03:26:32.808Z,9.20
2023-09-04T03:29:01.935Z,9.20
2023-09-04T03:31:30.981Z,9.90
2023-09-04T03:34:01.908Z,10.40
2023-09-04T03:36:31.241Z,10.40
2023-09-04T03:38:59.957Z,10.00
2023-09-04T03:49:29.206Z,10.60
2023-09-04T03:51:58.064Z,10.20
2023-09-04T03:54:26.991Z,10.50
2023-09-04T03:56:55.687Z,10.30
2023-09-04T03:59:24.425Z,10.50
2023-09-04T04:01:53.145Z,10.30
2023-09-04T04:04:21.961Z,9.70
2023-09-04T04:06:50.847Z,10.10
2023-09-04T04:09:24.142Z,9.50
2023-09-04T04:11:56.992Z,10.90
2023-09-04T04:14:25.741Z,10.60
2023-09-04T04:16:54.551Z,10.70
2023-09-04T04:19:23.934Z,10.30
2023-09-04T04:21:52.711Z,9.80
2023-09-04T04:24:21.985Z,10.00
2023-09-04T04:26:50.732Z,10.30
2023-09-04T04:29:19.419Z,10.10
2023-09-04T04:31:48.202Z,10.50
2023-09-04T04:34:17.078Z,10.90
2023-09-04T04:36:45.857Z,10.20
2023-09-04T04:39:14.562Z,11.10
2023-09-04T04:41:43.315Z,11.00
2023-09-04T04:44:12.546Z,11.20
2023-09-04T04:46:42.303Z,11.50
2023-09-04T04:49:11.142Z,10.90
2023-09-04T04:51:40.037Z,11.20
2023-09-04T04:54:08.811Z,11.50
2023-09-04T04:56:37.738Z,11.60
2023-09-04T04:59:09.063Z,12.50
2023-09-04T05:01:37.887Z,11.20
2023-09-04T05:04:07.705Z,11.90
2023-09-04T05:06:36.685Z,12.20
2023-09-04T05:09:06.611Z,12.40
2023-09-04T05:11:36.623Z,11.90
2023-09-04T05:14:07.078Z,11.40
2023-09-04T05:16:35.971Z,12.20
2023-09-04T05:19:04.768Z,11.30
2023-09-04T05:21:39.806Z,11.60
2023-09-04T05:24:15.493Z,12.10
2023-09-04T05:26:44.318Z,12.00
2023-09-04T05:29:13.118Z,11.90
2023-09-04T05:31:41.943Z,12.40
2023-09-04T05:34:10.756Z,12.00
2023-09-04T05:36:39.638Z,11.70
2023-09-04T05:39:08.637Z,12.50
2023-09-04T05:41:41.629Z,11.50
2023-09-04T05:44:11.103Z,11.30
2023-09-04T05:46:39.854Z,11.70
2023-09-04T05:49:08.996Z,12.00
2023-09-04T05:51:37.714Z,12.10
2023-09-04T05:54:06.502Z,12.70
2023-09-04T05:56:35.293Z,11.80
2023-09-04T05:59:05.175Z,10.40
2023-09-04T06:01:33.902Z,12.30
2023-09-04T06:04:02.622Z,11.10
2023-09-04T06:06:31.675Z,11.50
2023-09-04T06:09:00.336Z,11.20
2023-09-04T06:11:29.146Z,11.90
2023-09-04T06:13:57.937Z,11.00
2023-09-04T06:16:26.938Z,11.80
2023-09-04T06:18:55.759Z,11.20
2023-09-04T06:21:24.684Z,11.10
2023-09-04T06:23:53.381Z,12.10
2023-09-04T06:26:22.053Z,11.30
2023-09-04T06:28:50.707Z,11.40
2023-09-04T06:31:19.569Z,12.00
2023-09-04T06:33:49.170Z,11.70
2023-09-04T06:36:18.006Z,11.80
2023-09-04T06:38:46.708Z,11.40
2023-09-04T06:41:15.545Z,10.60
2023-09-04T06:43:44.362Z,10.90
2023-09-04T06:46:13.124Z,11.10
2023-09-04T06:48:41.945Z,11.00
2023-09-04T06:51:10.818Z,12.70
2023-09-04T06:53:39.605Z,12.90
2023-09-04T06:56:08.443Z,12.80
2023-09-04T06:58:39.677Z,12.60
2023-09-04T07:01:08.507Z,13.40
2023-09-04T07:03:37.269Z,14.00
2023-09-04T07:06:06.171Z,14.00
2023-09-04T07:08:34.941Z,13.90
2023-09-04T07:11:03.900Z,14.10
2023-09-04T07:13:32.682Z,14.10
2023-09-04T07:16:01.662Z,13.30
2023-09-04T07:18:30.390Z,13.20
2023-09-04T07:20:59.169Z,13.00
2023-09-04T07:23:29.318Z,13.20
2023-09-04T07:25:58.811Z,13.40
2023-09-04T07:28:27.776Z,12.80
2023-09-04T07:31:18.615Z,12.60
2023-09-04T07:33:51.881Z,12.20
2023-09-04T07:36:20.696Z,11.70
2023-09-04T07:38:49.542Z,11.50
2023-09-04T07:41:18.394Z,11.20
2023-09-04T07:43:47.164Z,11.10
2023-09-04T07:46:16.056Z,10.50
2023-09-04T07:48:44.820Z,11.30
2023-09-04T07:51:27.538Z,11.10
2023-09-04T07:54:01.010Z,11.40
2023-09-04T07:56:36.540Z,11.00
2023-09-04T07:59:12.162Z,10.30
2023-09-04T08:01:41.167Z,9.40
2023-09-04T08:04:09.963Z,10.30
2023-09-04T08:06:38.934Z,9.60
2023-09-04T08:09:07.709Z,10.50
2023-09-04T08:11:37.159Z,9.90
2023-09-04T08:14:05.968Z,10.20
2023-09-04T08:16:34.903Z,10.30
2023-09-04T08:19:06.308Z,9.60
2023-09-04T08:21:36.954Z,9.80
2023-09-04T08:31:42.306Z,9.10
2023-09-04T08:34:11.000Z,8.30
2023-09-04T08:36:40.104Z,8.80
2023-09-04T08:39:09.095Z,8.10
2023-09-04T08:41:38.848Z,9.00
2023-09-04T08:44:10.070Z,8.60
2023-09-04T08:46:41.720Z,9.10
2023-09-04T08:49:10.961Z,8.40
2023-09-04T08:51:39.747Z,8.60
2023-09-04T08:54:12.843Z,8.10
2023-09-04T08:56:42.002Z,8.70
2023-09-04T08:59:12.254Z,8.00
2023-09-04T09:01:43.214Z,8.30
2023-09-04T09:04:12.544Z,7.60
2023-09-04T09:06:45.610Z,8.40
2023-09-04T09:09:21.647Z,8.80
2023-09-04T09:11:55.642Z,8.30
2023-09-04T09:14:30.594Z,8.00
2023-09-04T09:17:15.757Z,8.10
2023-09-04T09:19:48.228Z,8.00
2023-09-04T09:30:09.535Z,6.70
2023-09-04T09:32:40.377Z,7.40
2023-09-04T09:35:11.008Z,8.40
2023-09-04T09:37:39.797Z,7.60
2023-09-04T09:40:11.165Z,7.30
2023-09-04T09:42:45.498Z,6.80
2023-09-04T09:45:15.142Z,7.50
2023-09-04T09:47:44.256Z,7.60
2023-09-04T09:50:16.630Z,7.20
2023-09-04T09:53:02.616Z,8.00
2023-09-04T09:55:36.529Z,7.50
2023-09-04T09:58:08.487Z,7.60
2023-09-04T10:00:38.057Z,8.20
2023-09-04T10:03:07.192Z,7.50
2023-09-04T10:05:36.870Z,7.40
2023-09-04T10:08:07.714Z,8.00
2023-09-04T10:10:41.511Z,6.90
2023-09-04T10:13:27.764Z,7.40
2023-09-04T10:16:02.947Z,7.30
2023-09-04T10:18:33.907Z,7.00
2023-09-04T10:21:06.307Z,7.20
2023-09-04T10:23:45.079Z,7.90
2023-09-04T10:26:21.652Z,7.80
2023-09-04T10:29:04.691Z,8.70
2023-09-04T10:31:36.915Z,7.70
2023-09-04T10:34:05.828Z,7.20
2023-09-04T10:36:36.007Z,7.90
2023-09-04T10:39:05.438Z,8.00
2023-09-04T10:41:36.426Z,8.40
2023-09-04T10:44:10.091Z,9.40
2023-09-04T10:46:42.645Z,8.20
2023-09-04T10:49:13.958Z,8.90
2023-09-04T10:51:48.941Z,9.40
2023-09-04T10:54:20.698Z,8.30
2023-09-04T10:57:08.544Z,8.60
2023-09-04T11:00:03.900Z,9.30
2023-09-04T11:02:35.245Z,8.60
2023-09-04T11:05:08.653Z,9.10
2023-09-04T11:07:38.372Z,7.80
2023-09-04T11:10:16.138Z,7.50
2023-09-04T11:12:46.763Z,8.40
2023-09-04T11:15:17.153Z,8.80
2023-09-04T11:17:50.131Z,8.00
2023-09-04T11:20:23.727Z,8.50
2023-09-04T11:22:52.534Z,9.00
2023-09-04T11:25:23.005Z,8.30
2023-09-04T11:27:51.853Z,9.00
2023-09-04T11:30:20.738Z,8.70
2023-09-04T11:32:49.582Z,8.80
2023-09-04T11:35:18.329Z,8.20
2023-09-04T11:37:47.350Z,7.90
2023-09-04T11:40:16.107Z,7.90
2023-09-04T11:42:44.839Z,8.50
2023-09-04T11:45:13.684Z,7.60
2023-09-04T11:47:44.318Z,7.30
2023-09-04T11:50:17.422Z,6.70
2023-09-04T11:52:47.076Z,6.10
2023-09-04T11:55:15.971Z,5.50
2023-09-04T11:57:44.831Z,5.90
2023-09-04T12:00:14.230Z,6.30
2023-09-04T12:02:46.386Z,6.20
2023-09-04T12:05:19.361Z,6.60
2023-09-04T12:07:49.028Z,6.20
2023-09-04T12:10:18.038Z,5.90
2023-09-04T12:14:51.513Z,6.40
2023-09-04T12:17:20.381Z,6.10
2023-09-04T12:19:49.847Z,6.20
2023-09-04T12:22:18.643Z,5.40
2023-09-04T12:25:08.267Z,5.40
2023-09-04T12:27:42.646Z,5.10
2023-09-04T12:30:12.624Z,4.70
2023-09-04T12:32:41.472Z,4.70
2023-09-04T12:35:11.104Z,5.20
2023-09-04T12:37:40.076Z,5.00
2023-09-04T12:40:10.213Z,5.10
2023-09-04T12:42:40.166Z,5.20
2023-09-04T12:45:09.427Z,5.40
2023-09-04T12:47:38.209Z,5.30
2023-09-04T12:50:07.319Z,5.90
2023-09-04T12:52:36.171Z,5.30
2023-09-04T12:55:05.327Z,5.60
2023-09-04T12:57:34.129Z,5.40
2023-09-04T13:00:02.883Z,5.20
2023-09-04T13:02:31.876Z,4.90
2023-09-04T13:05:00.887Z,5.20
2023-09-04T13:07:29.595Z,5.70
2023-09-04T13:09:58.405Z,5.40
2023-09-04T13:12:27.184Z,5.40
2023-09-04T13:14:56.850Z,5.70
2023-09-04T13:17:26.602Z,5.50
2023-09-04T13:19:55.932Z,5.30
2023-09-04T13:22:25.367Z,5.20
2023-09-04T13:24:54.365Z,5.40
2023-09-04T13:27:23.170Z,6.10
2023-09-04T13:29:51.980Z,6.00
2023-09-04T13:32:20.937Z,5.90
2023-09-04T13:34:49.704Z,5.50
2023-09-04T13:37:19.368Z,5.70
2023-09-04T13:39:48.249Z,5.70
2023-09-04T13:42:19.164Z,5.90
2023-09-04T13:44:47.909Z,5.60
2023-09-04T13:47:22.289Z,5.10
2023-09-04T13:49:51.764Z,5.30
2023-09-04T13:52:20.541Z,6.10
2023-09-04T13:54:49.271Z,5.60
2023-09-04T13:57:18.001Z,5.20
2023-09-04T13:59:47.048Z,5.40
2023-09-04T14:02:16.500Z,5.20
2023-09-04T14:04:45.498Z,4.90
2023-09-04T14:07:14.292Z,5.90
2023-09-04T14:09:43.027Z,5.90
2023-09-04T14:12:11.924Z,5.40
2023-09-04T14:14:40.659Z,5.50
2023-09-04T14:17:09.450Z,5.30
2023-09-04T14:19:38.278Z,4.50
2023-09-04T14:22:06.927Z,5.50
2023-09-04T14:24:35.748Z,4.80
2023-09-04T14:27:04.980Z,4.40
2023-09-04T14:29:33.692Z,4.80
2023-09-04T14:32:02.543Z,4.60
2023-09-04T14:34:31.274Z,5.20
2023-09-04T14:37:17.280Z,5.80
2023-09-04T14:39:46.855Z,5.10
2023-09-04T14:42:15.536Z,5.00
2023-09-04T14:44:45.580Z,5.30
2023-09-04T14:47:14.603Z,5.10
2023-09-04T14:49:43.272Z,5.90
2023-09-04T14:52:12.015Z,5.10
2023-09-04T14:54:41.281Z,5.40
2023-09-04T14:57:11.125Z,5.00
2023-09-04T14:59:39.831Z,5.50
2023-09-04T15:02:10.687Z,5.90
2023-09-04T15:04:41.413Z,5.40
2023-09-04T15:07:10.697Z,5.50
2023-09-04T15:09:39.542Z,5.00
2023-09-04T15:12:08.622Z,5.00
2023-09-04T15:14:37.445Z,5.60
2023-09-04T15:17:06.178Z,5.50
2023-09-04T15:19:35.036Z,5.30
2023-09-04T15:22:04.128Z,5.40
2023-09-04T15:24:32.810Z,5.10
2023-09-04T15:27:04.519Z,5.20
2023-09-04T15:29:33.165Z,5.60
2023-09-04T15:32:03.090Z,5.00
2023-09-04T15:34:33.763Z,5.20
2023-09-04T15:37:02.481Z,5.10
2023-09-04T15:39:31.165Z,5.10
2023-09-04T15:41:59.876Z,5.40
2023-09-04T15:44:28.681Z,5.20
2023-09-04T15:46:57.423Z,5.50
2023-09-04T15:49:26.474Z,5.00
2023-09-04T15:51:55.262Z,4.90
2023-09-04T15:54:30.669Z,5.80
2023-09-04T15:57:04.133Z,4.90
2023-09-04T15:59:34.822Z,5.30
2023-09-04T16:02:04.250Z,5.00
2023-09-04T16:04:33.507Z,5.30
2023-09-04T16:07:02.284Z,5.40
2023-09-04T16:09:31.029Z,5.40
2023-09-04T16:11:59.780Z,5.00
2023-09-04T16:14:28.431Z,5.30
2023-09-04T16:16:57.154Z,5.20
2023-09-04T16:19:30.590Z,5.10
2023-09-04T16:21:59.556Z,5.10
2023-09-04T16:24:28.463Z,4.90
2023-09-04T16:26:57.435Z,5.30
2023-09-04T16:29:26.335Z,5.90
2023-09-04T16:31:55.161Z,5.60
2023-09-04T16:34:23.964Z,5.20
2023-09-04T16:36:52.859Z,5.50
2023-09-04T16:39:21.604Z,5.90
2023-09-04T16:41:50.274Z,5.20
2023-09-04T16:44:19.005Z,5.30
2023-09-04T16:46:50.241Z,5.50
2023-09-04T16:49:18.998Z,5.30
2023-09-04T16:51:56.647Z,5.50
2023-09-04T16:54:27.230Z,5.50
2023-09-04T16:56:56.058Z,5.20
2023-09-04T16:59:25.021Z,5.10
2023-09-04T17:01:54.209Z,5.20
2023-09-04T17:04:23.334Z,6.10
2023-09-04T17:06:53.985Z,5.90
2023-09-04T17:09:24.878Z,5.60
2023-09-04T17:11:54.071Z,5.60
2023-09-04T17:14:24.333Z,5.90
2023-09-04T17:16:53.907Z,5.40
2023-09-04T17:19:22.928Z,5.30
2023-09-04T17:21:51.786Z,5.10
2023-09-04T17:24:20.886Z,5.40
2023-09-04T17:26:49.881Z,5.60
2023-09-04T17:29:19.177Z,4.90
2023-09-04T17:31:53.879Z,5.60
2023-09-04T17:34:29.659Z,5.80
2023-09-04T17:36:59.071Z,5.40
2023-09-04T17:39:29.183Z,5.70
2023-09-04T17:41:58.095Z,6.60
2023-09-04T17:44:27.180Z,5.60
2023-09-04T17:46:56.377Z,5.80
2023-09-04T17:49:26.240Z,5.50
2023-09-04T17:51:55.078Z,5.80
2023-09-04T17:54:24.075Z,6.10
2023-09-04T17:56:52.972Z,5.80
2023-09-04T17:59:21.888Z,5.60
2023-09-04T18:01:50.968Z,5.60
2023-09-04T18:04:23.139Z,5.90
2023-09-04T18:06:52.016Z,5.90
2023-09-04T18:09:24.373Z,6.00
2023-09-04T18:11:53.482Z,5.60
2023-09-04T18:14:22.594Z,6.40
2023-09-04T18:16:52.766Z,5.90
2023-09-04T18:19:26.273Z,5.80
2023-09-04T18:21:55.059Z,6.20
2023-09-04T18:24:23.841Z,5.70
2023-09-04T18:26:52.536Z,5.90
2023-09-04T18:29:24.155Z,6.30
2023-09-04T18:31:55.850Z,6.20
2023-09-04T18:34:25.043Z,6.30
2023-09-04T18:36:53.844Z,6.20
2023-09-04T18:39:22.703Z,6.40
2023-09-04T18:41:51.507Z,6.20
2023-09-04T18:44:21.443Z,6.50
2023-09-04T18:46:50.329Z,6.50
2023-09-04T18:49:19.059Z,6.00
2023-09-04T18:51:48.762Z,6.60
2023-09-04T18:54:19.328Z,6.30
2023-09-04T18:56:49.456Z,6.50
2023-09-04T18:59:18.525Z,7.30
2023-09-04T19:01:47.392Z,6.50
2023-09-04T19:04:16.125Z,7.00
2023-09-04T19:06:45.014Z,7.30
2023-09-04T19:09:13.904Z,6.20
2023-09-04T19:11:42.806Z,6.50
2023-09-04T19:14:11.589Z,6.20
2023-09-04T19:16:40.354Z,6.40
2023-09-04T19:19:09.097Z,7.10
2023-09-04T19:21:37.834Z,6.90
2023-09-04T19:24:06.784Z,7.20
2023-09-04T19:26:35.958Z,6.80
2023-09-04T19:29:04.809Z,6.80
2023-09-04T19:31:33.947Z,7.60
2023-09-04T19:34:02.687Z,7.10
2023-09-04T19:36:31.348Z,6.80
2023-09-04T19:39:00.258Z,7.80
2023-09-04T19:41:29.269Z,7.40
2023-09-04T19:43:58.076Z,7.30
2023-09-04T19:46:26.872Z,7.70
2023-09-04T19:48:55.617Z,7.80
2023-09-04T19:51:25.278Z,8.10
2023-09-04T19:53:53.999Z,7.90
2023-09-04T19:56:23.201Z,8.10
2023-09-04T19:58:51.872Z,8.20
2023-09-04T20:01:20.482Z,8.10
2023-09-04T20:03:49.239Z,8.80
2023-09-04T20:06:18.092Z,8.40
2023-09-04T20:08:54.103Z,8.40
2023-09-04T20:11:22.819Z,8.20
2023-09-04T20:13:54.100Z,8.40
2023-09-04T20:16:22.956Z,8.30
2023-09-04T20:18:51.772Z,8.80
2023-09-04T20:21:20.490Z,8.80
2023-09-04T20:23:57.070Z,8.20
2023-09-04T20:26:38.948Z,9.00
2023-09-04T20:29:20.004Z,8.20
2023-09-04T20:31:48.807Z,9.40
2023-09-04T20:34:17.675Z,9.20
2023-09-04T20:36:48.079Z,9.10
2023-09-04T20:39:16.903Z,9.40
2023-09-04T20:41:45.535Z,9.00
2023-09-04T20:44:14.831Z,9.00
2023-09-04T20:46:43.586Z,9.20
2023-09-04T20:49:12.337Z,9.30
2023-09-04T20:51:41.237Z,9.60
2023-09-04T20:54:09.935Z,9.50
2023-09-04T20:56:41.500Z,9.80
2023-09-04T20:59:10.219Z,9.70
2023-09-04T21:01:38.978Z,9.20
2023-09-04T21:04:07.963Z,9.90
2023-09-04T21:06:42.737Z,9.10
2023-09-04T21:09:11.960Z,9.20
2023-09-04T21:11:40.768Z,9.50
2023-09-04T21:14:28.110Z,9.30
2023-09-04T21:17:16.960Z,9.30
2023-09-04T21:20:04.407Z,9.10
2023-09-04T21:22:51.589Z,8.90
2023-09-04T21:25:38.730Z,8.10
2023-09-04T21:28:26.322Z,9.30
2023-09-04T21:31:14.079Z,9.30
2023-09-04T21:34:01.129Z,9.50
2023-09-04T21:36:48.224Z,9.00
2023-09-04T21:39:35.675Z,9.70
2023-09-04T21:42:23.114Z,9.50
2023-09-04T21:45:10.596Z,9.50
2023-09-04T21:47:57.798Z,9.70
2023-09-04T21:50:45.436Z,9.90
2023-09-04T21:53:32.585Z,9.20
2023-09-04T21:56:19.953Z,8.70
2023-09-04T21:59:07.135Z,9.50
2023-09-04T22:01:54.375Z,9.20
2023-09-04T22:04:41.664Z,9.50
2023-09-04T22:07:31.438Z,10.40
2023-09-04T22:10:18.440Z,9.20
2023-09-04T22:13:09.599Z,10.00
2023-09-04T22:15:58.529Z,10.20
2023-09-04T22:18:48.867Z,9.10
2023-09-04T22:21:36.758Z,9.90
2023-09-04T22:24:24.707Z,9.30
2023-09-04T22:27:11.898Z,9.50
2023-09-04T22:29:59.473Z,9.80
2023-09-04T22:32:46.948Z,9.10
2023-09-04T22:35:34.700Z,9.70
2023-09-04T22:38:30.669Z,9.10
2023-09-04T22:41:22.993Z,9.20
2023-09-04T22:44:13.927Z,9.20
2023-09-04T22:47:01.203Z,9.40
2023-09-04T22:49:48.573Z,9.10
2023-09-04T22:52:35.645Z,9.20
2023-09-04T22:55:23.717Z,8.70
2023-09-04T22:58:12.153Z,9.10
2023-09-04T23:00:59.694Z,8.90
2023-09-04T23:03:51.950Z,8.60
2023-09-04T23:06:39.137Z,9.30
2023-09-04T23:09:26.432Z,8.70
2023-09-04T23:12:13.633Z,8.40
2023-09-04T23:15:01.004Z,9.40
2023-09-04T23:17:50.196Z,8.60
2023-09-04T23:20:37.688Z,9.00
2023-09-04T23:23:07.004Z,8.60
2023-09-04T23:25:37.220Z,8.60
2023-09-04T23:28:06.892Z,8.50
2023-09-04T23:30:39.070Z,8.60
2023-09-04T23:33:20.563Z,8.70
2023-09-04T23:36:06.487Z,8.40
2023-09-04T23:38:55.328Z,8.60
2023-09-04T23:41:42.861Z,8.50
2023-09-04T23:44:58.553Z,8.30
2023-09-04T23:47:27.475Z,8.40
2023-09-04T23:49:56.865Z,7.10
2023-09-04T23:52:26.243Z,8.20
2023-09-04T23:54:56.877Z,7.80
2023-09-04T23:57:25.792Z,7.40
2023-09-04T23:59:55.040Z,8.10
